Flight Track Log - Related Links

Times and Time Zones

All times are in EDT time to prevent confusion due to time zone crossing. See the GJS3710 flight status page for this flight to view local times or setup timezone preferences in your user account.

Time Position Orientation Groundspeed Altitude Reporting Facility
EDT Latitude Longitude Course Direction KTS MPH feet Rate Location/Type
Sun 02:35:38 PM 39.8000 -104.6500 95° East 186 214 6,800  Level Denver TRACON
Sun 02:36:32 PM 39.7667 -104.6000 131° Southeast 251 289 8,400 2,063 Climbing Denver TRACON
Sun 02:37:14 PM 39.7664 -104.5308 90° East 259 298 10,100 1,962 Climbing Denver Center
Sun 02:38:00 PM 39.7709 -104.0772 101° East  Level FlightAware Approximate
Sun 02:38:16 PM 39.7617 -104.4269 93° East 286 329 11,800  Level Denver Center
Sun 02:39:00 PM 39.7659 -103.9281 100° East  Level FlightAware Approximate
Sun 02:39:18 PM 39.7583 -104.2986 92° East 334 384 13,500  Level Denver Center
Sun 02:40:00 PM 39.7414 -103.7821 108° East  Level FlightAware Approximate
Sun 02:40:20 PM 39.7550 -104.1703 92° East 355 409 15,500  Level Denver Center
Sun 02:41:00 PM 39.7254 -103.6381 95° East  Level FlightAware Approximate
Sun 02:41:22 PM 39.7500 -104.0389 93° East 363 418 17,300  Level Denver Center
Sun 02:42:24 PM 39.7464 -103.8908 92° East 381 438 18,800 1,500 Climbing Denver Center
Sun 02:43:26 PM 39.7431 -103.7486 92° East 394 453 20,400 1,368 Climbing Denver Center
Sun 02:44:40 PM 39.7394 -103.6036 92° East 391 450 21,900 1,368 Climbing Denver Center
Sun 02:45:42 PM 39.7344 -103.4328 92° East 401 461 23,500 1,306 Climbing Denver Center
Sun 02:46:44 PM 39.7311 -103.3064 92° East 414 476 24,600 1,306 Climbing Denver Center
Sun 02:47:46 PM 39.7250 -103.1033 92° East 419 482 26,200 1,161 Climbing Denver Center
Sun 02:48:48 PM 39.7208 -102.9475 92° East 429 494 27,000 726 Climbing Denver Center
Sun 02:49:50 PM 39.7144 -102.7847 93° East 447 514 27,700 774 Climbing Denver Center
Sun 02:50:52 PM 39.7081 -102.6169 93° East 458 527 28,600 774 Climbing Denver Center
Sun 02:51:54 PM 39.7022 -102.4303 92° East 466 536 29,300 532 Climbing Denver Center
Sun 02:52:56 PM 39.6969 -102.2931 93° East 475 547 29,700 435 Climbing Denver Center
Sun 02:53:58 PM 39.6889 -102.0944 93° East 491 565 30,200 726 Climbing Denver Center
Sun 02:55:00 PM 39.6817 -101.8953 93° East 497 572 31,200 919 Climbing Denver Center
Sun 02:56:02 PM 39.6736 -101.7256 93° East 495 570 32,100 871 Climbing Denver Center
Sun 02:57:04 PM 39.6650 -101.5250 93° East 499 574 33,000 750 Climbing Denver Center
Sun 02:58:18 PM 39.6572 -101.3550 93° East 497 572 33,800 788 Climbing Denver Center
Sun 02:59:21 PM 39.6456 -101.1250 94° East 500 575 34,800 866 Climbing Denver Center
Sun 03:01:25 PM 39.6283 -100.7594 93° East 490 564 36,500 839 Climbing Denver Center
Sun 03:02:27 PM 39.6178 -100.5633 94° East 489 563 37,400 774 Climbing Denver Center
Sun 03:03:29 PM 39.6089 -100.4014 94° East 478 550 38,100 537 Climbing Denver Center
Sun 03:04:30 PM 39.6014 -100.2661 94° East 475 547 38,500 290 Climbing Denver Center
Sun 03:05:33 PM 39.5894 -100.0525 94° East 470 541 38,700 240 Climbing Denver Center
Sun 03:06:35 PM 39.5800 -99.8828 94° East 469 540 39,000 145 Climbing Denver Center
Sun 03:07:37 PM 39.5700 -99.7133 94° East 470 541 39,000  Level Denver Center
Sun 03:08:39 PM 39.5581 -99.5414 95° East 474 545 39,000  Level Denver Center
Sun 03:10:06 PM 39.5406 -99.2647 95° East 483 556 39,000  Level Denver Center
Sun 03:11:08 PM 39.5297 -99.0908 95° East 485 558 39,000  Level Denver Center
Sun 03:12:10 PM 39.5192 -98.9197 95° East 481 554 39,000  Level Denver Center
Sun 03:13:12 PM 39.5072 -98.7503 95° East 475 547 39,000  Level Denver Center
Sun 03:14:13 PM 39.4961 -98.5892 95° East 456 525 39,000  Level Denver Center
Sun 03:15:15 PM 39.4842 -98.4253 95° East 458 527 39,000  Level Denver Center
Sun 03:16:18 PM 39.4697 -98.2311 95° East 453 521 39,000  Level Denver Center
Sun 03:17:57 PM 39.4500 -97.9711 96° East 456 525 39,000  Level Minneapolis Center
Sun 03:18:57 PM 39.4386 -97.8006 95° East 472 543 39,000  Level Kansas City Center
Sun 03:19:59 PM 39.4256 -97.6322 96° East 471 542 39,000  Level Kansas City Center
Sun 03:21:01 PM 39.4122 -97.4553 96° East 468 539 39,000  Level Kansas City Center
Sun 03:22:03 PM 39.3994 -97.2936 96° East 471 542 39,000  Level Kansas City Center
Sun 03:23:05 PM 39.3825 -97.1064 97° East 470 541 39,000  Level Kansas City Center
Sun 03:24:07 PM 39.3711 -96.9497 95° East 462 532 39,000  Level Kansas City Center
Sun 03:25:09 PM 39.3556 -96.7708 96° East 452 520 39,000  Level Kansas City Center
Sun 03:26:11 PM 39.3425 -96.6186 96° East 447 514 39,000  Level Kansas City Center
Sun 03:27:13 PM 39.3278 -96.4603 97° East 449 517 39,000  Level Kansas City Center
Sun 03:29:17 PM 39.2928 -96.1000 97° East 462 532 39,000  Level Kansas City Center
Sun 03:30:19 PM 39.2783 -95.9425 97° East 462 532 39,000  Level Kansas City Center
Sun 03:31:21 PM 39.2617 -95.7558 97° East 469 540 39,000  Level Kansas City Center
Sun 03:32:23 PM 39.2464 -95.5953 97° East 470 541 39,000  Level Kansas City Center
Sun 03:33:25 PM 39.2286 -95.4117 97° East 465 535 39,000  Level Kansas City Center
Sun 03:34:27 PM 39.2119 -95.2508 98° East 456 525 39,000  Level Kansas City Center
Sun 03:35:29 PM 39.1950 -95.0814 97° East 447 514 39,000  Level Kansas City Center
Sun 03:36:31 PM 39.1814 -94.9433 97° East 440 506 39,000  Level Kansas City Center
Sun 03:37:33 PM 39.1625 -94.7664 98° East 446 513 39,000 -435 Level Kansas City Center
Sun 03:38:35 PM 39.1469 -94.6111 97° East 456 525 38,100 -645 Descending Kansas City Center
Sun 03:40:39 PM 39.1117 -94.2767 98° East 446 513 37,000 -355 Descending Kansas City Center
Sun 03:41:41 PM 39.0917 -94.1017 98° East 443 510 37,000 -145 Level Kansas City Center
Sun 03:42:43 PM 39.0675 -93.9517 102° East 447 514 36,700 -484 Descending Kansas City Center
Sun 03:43:45 PM 39.0397 -93.7817 102° East 433 498 36,000 -585 Descending Kansas City Center
Sun 03:44:46 PM 39.0161 -93.6358 102° East 436 502 35,500 -585 Descending Kansas City Center
Sun 03:45:48 PM 38.9894 -93.4706 102° East 442 509 34,800 -871 Descending Kansas City Center
Sun 03:46:50 PM 38.9650 -93.3186 102° East 437 503 33,700 -1,016 Descending Kansas City Center
Sun 03:47:52 PM 38.9389 -93.1667 102° East 434 499 32,700 -968 Descending Kansas City Center
Sun 03:48:54 PM 38.9122 -93.0131 103° East 436 502 31,700 -968 Descending Kansas City Center
Sun 03:49:56 PM 38.8867 -92.8550 102° East 445 512 30,700 -968 Descending Kansas City Center
Sun 03:50:58 PM 38.8622 -92.7078 102° East 430 495 29,700 -1,065 Descending Kansas City Center
Sun 03:52:00 PM 38.8322 -92.5425 103° East 402 463 28,500 -1,113 Descending Kansas City Center
Sun 03:53:02 PM 38.8081 -92.4008 102° East 402 463 27,400 -1,016 Descending Kansas City Center
Sun 03:54:04 PM 38.7836 -92.2625 103° East 401 461 26,400 -968 Descending Kansas City Center
Sun 03:55:06 PM 38.7597 -92.1278 103° East 395 455 25,400 -968 Descending Kansas City Center
Sun 03:56:08 PM 38.7361 -91.9947 103° East 389 448 24,400 -968 Descending Kansas City Center
Sun 03:57:10 PM 38.7117 -91.8606 103° East 385 443 23,400 -677 Descending Kansas City Center
Sun 03:58:12 PM 38.6922 -91.7333 101° East 371 427 23,000 -194 Descending Kansas City Center
Sun 03:59:14 PM 38.6917 -91.6031 90° East 364 419 23,000  Level Kansas City Center
Sun 04:00:16 PM 38.6925 -91.4442 90° East 368 423 23,000 -484 Level Kansas City Center
Sun 04:01:18 PM 38.6939 -91.3206 89° East 370 426 22,000 -1,645 Descending Kansas City Center
Sun 04:02:20 PM 38.6933 -91.1961 90° East 358 412 19,600 -2,341 Descending Kansas City Center
Sun 04:03:21 PM 38.6964 -91.0728 88° East 350 403 17,200 -2,341 Descending Kansas City Center
Sun 04:04:23 PM 38.6997 -90.9481 88° East 351 404 14,800 -1,984 Descending Kansas City Center
Sun 04:05:25 PM 38.7031 -90.8292 88° East 340 391 13,100 -1,935 Descending Kansas City Center
Sun 04:06:27 PM 38.7064 -90.7006 88° East 309 356 10,800 -1,694 Descending Kansas City Center
Sun 04:07:29 PM 38.7108 -90.6028 87° East 282 325 9,600 -1,403 Descending Kansas City Center
Sun 04:08:31 PM 38.7075 -90.5156 93° East 254 292 7,900 -1,645 Descending Kansas City Center
Sun 04:09:33 PM 38.6708 -90.4389 121° Southeast 260 299 6,200 -1,790 Descending Kansas City Center
Sun 04:10:35 PM 38.6253 -90.3478 123° Southeast 262 302 4,200 -1,065 Descending Kansas City Center
Sun 04:11:37 PM 38.5883 -90.2722 122° Southeast 258 297 4,000 -97 Descending Kansas City Center
Sun 04:12:39 PM 38.6011 -90.2008 77° East 251 289 4,000 -435 Level Kansas City Center
Sun 04:13:41 PM 38.6606 -90.1814 14° North 247 284 3,100 -774 Descending Kansas City Center
Sun 04:14:43 PM 38.6950 -90.2531 302° West 240 276 2,400 -919 Descending Kansas City Center
Sun 04:15:45 PM 38.7236 -90.3078 304° West 181 208 1,200 -1,161 Descending Kansas City Center

Login

Don't have an account? Register now (free) for customized features, flight alerts, and more!